Time;durP1;ratioP1;P1;durP2;ratioP2;P2;SDS_P1;SDS_P2;PMS_P1;PMS_P2;Temp;Humidity;BMP_temperature;BMP_pressure;BME280_temperature;BME280_humidity;BME280_pressure;Samples;Min_cycle;Max_cycle;Signal;HPM_P1;HPM_P2
2023/01/17 00:02:13;;;;;;;3.03;2.92;;;;;;;1.82;100.00;97854.41;6070730;23;20053;-77
2023/01/17 00:10:16;;;;;;;3.17;3.08;;;;;;;1.79;100.00;97894.22;6079917;23;20033;-77
2023/01/17 00:12:49;;;;;;;2.95;2.85;;;;;;;1.54;100.00;97894.03;6081426;23;20013;-77
2023/01/17 00:15:18;;;;;;;3.30;3.20;;;;;;;1.49;100.00;97873.66;6073509;23;20022;-78
2023/01/17 00:17:46;;;;;;;3.08;2.97;;;;;;;1.69;100.00;97889.72;6107536;23;20025;-77
2023/01/17 00:26:03;;;;;;;3.00;2.90;;;;;;;1.44;100.00;97834.31;6073834;23;20076;-76
2023/01/17 01:35:52;;;;;;;3.08;2.97;;;;;;;1.81;100.00;97958.78;6117657;23;20604;-78
2023/01/17 01:38:22;;;;;;;3.20;3.10;;;;;;;1.69;100.00;97957.75;6118284;23;20453;-75
2023/01/17 01:40:51;;;;;;;3.95;3.63;;;;;;;2.15;100.00;98013.63;6113573;23;20033;-77
2023/01/17 01:43:37;;;;;;;3.10;2.90;;;;;;;2.18;100.00;98034.13;6089345;23;20021;-75
2023/01/17 01:46:05;;;;;;;3.00;2.90;;;;;;;2.20;100.00;98045.22;6095908;23;20022;-76
2023/01/17 01:48:41;;;;;;;2.83;2.72;;;;;;;2.03;100.00;98028.13;6117775;23;20062;-76
2023/01/17 01:51:14;;;;;;;3.00;2.90;;;;;;;2.23;100.00;98057.16;6084826;23;20052;-76
2023/01/17 01:53:46;;;;;;;2.92;2.83;;;;;;;1.74;100.00;97973.81;6106558;23;20030;-75
2023/01/17 01:56:14;;;;;;;3.10;2.90;;;;;;;1.50;100.00;97952.00;6122489;23;20094;-77
2023/01/17 01:58:44;;;;;;;3.30;3.20;;;;;;;1.85;100.00;98018.91;6095145;23;20010;-76
2023/01/17 02:01:11;;;;;;;3.00;2.90;;;;;;;2.16;100.00;98059.25;6123100;23;20025;-75
2023/01/17 02:03:42;;;;;;;2.90;2.80;;;;;;;2.28;100.00;98086.97;6072959;23;20056;-77
2023/01/17 02:06:32;;;;;;;3.45;3.25;;;;;;;2.03;100.00;98082.47;6075367;23;20032;-77
2023/01/17 02:09:04;;;;;;;3.00;2.90;;;;;;;2.12;100.00;98100.00;6074866;23;20152;-77
2023/01/17 02:11:32;;;;;;;3.17;3.08;;;;;;;1.31;100.00;97999.59;6093417;23;20021;-76
2023/01/17 02:13:58;;;;;;;2.80;2.70;;;;;;;2.14;100.00;98120.63;6074661;23;20096;-78
2023/01/17 02:16:31;;;;;;;2.80;2.70;;;;;;;2.10;100.00;98121.72;6075563;23;20037;-76
2023/01/17 02:19:33;;;;;;;3.33;3.22;;;;;;;1.93;100.00;98099.44;6090038;23;20017;-77
2023/01/17 02:22:14;;;;;;;3.00;2.90;;;;;;;2.12;100.00;98137.97;6054001;23;20017;-76
2023/01/17 02:25:02;;;;;;;2.85;2.75;;;;;;;2.04;100.00;98137.59;6113812;23;19997;-78
2023/01/17 02:27:54;;;;;;;2.83;2.72;;;;;;;1.71;100.00;98102.44;6095107;23;20021;-76
2023/01/17 02:30:41;;;;;;;3.17;3.08;;;;;;;1.73;100.00;98088.50;6095775;23;20243;-77
2023/01/17 02:33:26;;;;;;;2.80;2.70;;;;;;;2.03;100.00;98148.88;6077964;23;20017;-77
2023/01/17 02:36:03;;;;;;;3.17;3.08;;;;;;;1.75;100.00;98122.84;6095261;23;20140;-77
2023/01/17 02:38:36;;;;;;;3.25;3.10;;;;;;;2.02;100.00;98160.13;6113729;23;20052;-78
2023/01/17 02:41:12;;;;;;;2.90;2.80;;;;;;;1.43;100.00;98065.25;6091819;23;20041;-77
2023/01/17 02:43:40;;;;;;;3.53;3.38;;;;;;;1.50;100.00;98094.97;6108617;23;20029;-76
2023/01/17 02:46:06;;;;;;;3.20;3.10;;;;;;;1.31;100.00;98071.94;6076479;23;20030;-77
2023/01/17 02:48:36;;;;;;;3.05;2.95;;;;;;;1.62;100.00;98159.84;6086942;23;20118;-77
2023/01/17 02:51:30;;;;;;;3.00;2.90;;;;;;;1.88;100.00;98181.63;6109888;23;20285;-77
2023/01/17 02:54:07;;;;;;;3.00;2.90;;;;;;;1.45;100.00;98114.28;6093711;23;20002;-76
2023/01/17 02:57:08;;;;;;;2.90;2.80;;;;;;;1.82;100.00;98185.38;6094396;23;20448;-78
2023/01/17 02:59:51;;;;;;;2.72;2.63;;;;;;;1.74;100.00;98185.00;6077034;23;20037;-75
2023/01/17 03:02:27;;;;;;;3.00;2.78;;;;;;;1.71;100.00;98187.75;6099572;23;20023;-77
2023/01/17 03:05:01;;;;;;;3.35;3.25;;;;;;;1.05;100.00;98090.66;6109535;23;20089;-78
2023/01/17 03:07:29;;;;;;;3.10;3.00;;;;;;;1.62;100.00;98194.25;6083476;23;20105;-78
2023/01/17 03:09:59;;;;;;;3.17;3.08;;;;;;;1.64;100.00;98209.69;6083681;23;20548;-76
2023/01/17 03:12:31;;;;;;;3.22;3.13;;;;;;;1.47;100.00;98166.72;6116786;23;20033;-77
2023/01/17 03:14:58;;;;;;;3.63;3.42;;;;;;;1.60;100.00;98178.00;6063377;23;20249;-77
2023/01/17 03:17:30;;;;;;;3.10;3.00;;;;;;;1.53;100.00;98187.03;6111326;23;20114;-77
2023/01/17 03:19:59;;;;;;;;;;;;;;;1.70;100.00;98196.44;6110515;23;20061;-76
2023/01/17 03:22:25;;;;;;;2.83;2.72;;;;;;;1.75;100.00;98209.94;6083370;23;19930;-78
2023/01/17 03:24:52;;;;;;;3.10;3.00;;;;;;;1.39;100.00;98157.63;6082191;23;20404;-75
2023/01/17 03:27:18;;;;;;;2.90;2.80;;;;;;;1.24;100.00;98142.13;6117348;23;20084;-77
2023/01/17 03:29:45;;;;;;;3.20;3.10;;;;;;;1.67;100.00;98209.53;6079366;23;20096;-78
2023/01/17 03:32:12;;;;;;;2.78;2.67;;;;;;;1.06;100.00;98105.22;6081951;23;20420;-77
2023/01/17 03:34:38;;;;;;;3.35;3.22;;;;;;;1.71;100.00;98208.44;6077525;23;20002;-77
2023/01/17 03:37:05;;;;;;;3.40;3.20;;;;;;;1.50;100.00;98189.78;6083770;23;20052;-76
2023/01/17 03:39:34;;;;;;;3.17;3.08;;;;;;;0.92;100.00;98082.75;6034306;23;20024;-78
2023/01/17 03:42:03;;;;;;;3.67;3.50;;;;;;;0.90;100.00;98082.84;6051910;23;20025;-77
2023/01/17 03:44:30;;;;;;;2.95;2.85;;;;;;;1.80;100.00;98213.09;6079107;23;20433;-77
2023/01/17 03:46:56;;;;;;;3.30;3.20;;;;;;;1.78;100.00;98220.94;6035899;23;20286;-75
2023/01/17 03:49:23;;;;;;;4.20;3.05;;;;;;;1.28;100.00;98141.03;6068078;23;20024;-77
2023/01/17 03:51:50;;;;;;;3.35;3.25;;;;;;;-0.23;100.00;97886.84;6062901;23;20054;-79
2023/01/17 03:54:16;;;;;;;3.88;3.67;;;;;;;1.81;100.00;98227.69;6051181;23;20071;-76
2023/01/17 03:56:42;;;;;;;4.50;3.63;;;;;;;1.82;100.00;98221.59;6085020;23;20077;-76
2023/01/17 03:59:09;;;;;;;3.13;3.03;;;;;;;1.78;100.00;98226.13;6079231;23;20070;-76
2023/01/17 04:01:38;;;;;;;3.40;3.03;;;;;;;1.35;100.00;98163.06;6063966;23;20044;-78
2023/01/17 04:04:05;;;;;;;3.25;3.10;;;;;;;1.09;100.00;98125.75;6084763;23;20008;-75
2023/01/17 04:06:31;;;;;;;3.45;3.25;;;;;;;1.71;100.00;98235.13;6050643;23;20038;-77
2023/01/17 04:08:58;;;;;;;3.50;3.25;;;;;;;1.57;100.00;98204.03;6081206;23;20022;-78
2023/01/17 04:11:24;;;;;;;4.05;3.75;;;;;;;1.69;100.00;98239.56;6036829;23;20778;-78
2023/01/17 04:13:51;;;;;;;3.42;3.22;;;;;;;1.36;100.00;98203.47;6055355;23;20434;-79
2023/01/17 04:16:17;;;;;;;2.92;2.83;;;;;;;1.52;100.00;98230.13;6081164;23;20022;-78
2023/01/17 04:18:46;;;;;;;3.63;3.42;;;;;;;0.86;100.00;98124.41;6068100;23;20559;-77
2023/01/17 04:21:13;;;;;;;3.10;3.00;;;;;;;1.11;100.00;98172.97;6085783;23;20056;-77
2023/01/17 04:23:39;;;;;;;3.35;3.15;;;;;;;1.63;100.00;98244.25;6040182;23;20590;-77
2023/01/17 04:26:10;;;;;;;3.20;3.10;;;;;;;1.07;100.00;98171.47;6057020;23;21251;-78
2023/01/17 04:28:36;;;;;;;2.92;2.83;;;;;;;1.22;100.00;98208.56;6079879;23;20104;-78
2023/01/17 04:31:03;;;;;;;3.40;3.20;;;;;;;1.01;100.00;98167.47;6053148;23;20033;-77
2023/01/17 04:33:29;;;;;;;2.85;2.75;;;;;;;1.32;100.00;98220.91;6085611;23;20062;-77
2023/01/17 04:35:56;;;;;;;3.70;3.50;;;;;;;0.43;100.00;98063.00;6074818;23;20419;-76
2023/01/17 04:38:23;;;;;;;3.03;2.92;;;;;;;0.48;100.00;98073.06;6093111;23;20029;-77
2023/01/17 04:40:50;;;;;;;3.28;3.13;;;;;;;1.28;100.00;98231.47;6113705;23;20048;-78
2023/01/17 04:43:17;;;;;;;3.05;2.90;;;;;;;0.42;100.00;98102.63;6071756;23;20053;-77
2023/01/17 04:45:43;;;;;;;3.17;3.08;;;;;;;1.26;100.00;98243.63;6112979;23;20025;-78
2023/01/17 04:48:11;;;;;;;3.13;3.03;;;;;;;0.93;100.00;98229.84;6059643;23;20033;-77
2023/01/17 04:50:38;;;;;;;3.20;3.03;;;;;;;1.03;100.00;98225.03;6056051;23;20028;-76
2023/01/17 04:53:05;;;;;;;3.13;3.03;;;;;;;-0.40;100.00;98005.47;6086791;23;20096;-76
2023/01/17 04:55:31;;;;;;;3.47;3.28;;;;;;;0.35;100.00;98130.47;6077285;23;20254;-76
2023/01/17 04:57:58;;;;;;;3.67;3.47;;;;;;;0.66;100.00;98172.78;6109747;23;20455;-76
2023/01/17 05:00:24;;;;;;;3.05;2.95;;;;;;;1.27;100.00;98291.81;6061507;23;20118;-79
2023/01/17 05:02:51;;;;;;;3.50;3.28;;;;;;;1.28;100.00;98255.53;6090589;23;20261;-77
2023/01/17 05:05:17;;;;;;;3.67;3.47;;;;;;;1.12;100.00;98241.78;6080404;23;20061;-76
2023/01/17 05:07:52;;;;;;;3.55;3.40;;;;;;;1.07;100.00;98254.94;6094730;23;20013;-77
2023/01/17 05:10:18;;;;;;;3.15;3.05;;;;;;;0.49;100.00;98165.91;6114636;23;20423;-76
2023/01/17 05:12:52;;;;;;;3.75;3.55;;;;;;;0.52;100.00;98196.72;6086169;23;20013;-76
2023/01/17 05:15:19;;;;;;;3.20;3.00;;;;;;;0.85;100.00;98244.09;6081316;23;20029;-76
2023/01/17 05:17:45;;;;;;;3.25;3.05;;;;;;;0.26;100.00;98143.03;6107851;23;20637;-76
2023/01/17 05:20:12;;;;;;;3.03;2.92;;;;;;;0.23;100.00;98149.19;6062271;23;20151;-79
2023/01/17 05:22:38;;;;;;;3.13;3.03;;;;;;;0.72;100.00;98220.63;6093595;23;20009;-77
2023/01/17 05:25:05;;;;;;;3.10;3.00;;;;;;;0.74;100.00;98221.38;6085104;23;20306;-78
2023/01/17 05:27:31;;;;;;;3.88;3.67;;;;;;;0.83;100.00;98228.66;6081081;23;20033;-76
2023/01/17 05:29:58;;;;;;;3.03;2.92;;;;;;;0.81;100.00;98221.94;6084343;23;20338;-76
2023/01/17 05:32:24;;;;;;;3.20;3.10;;;;;;;-0.48;100.00;98012.72;6114378;23;20033;-77
2023/01/17 05:34:50;;;;;;;3.40;3.20;;;;;;;0.83;100.00;98240.75;6064886;23;20521;-78
2023/01/17 05:37:17;;;;;;;3.40;3.20;;;;;;;0.55;100.00;98212.03;6113674;23;20432;-77
2023/01/17 05:39:43;;;;;;;3.15;3.05;;;;;;;0.88;100.00;98286.09;6064172;23;20010;-78
2023/01/17 05:42:10;;;;;;;3.60;3.38;;;;;;;0.84;100.00;98266.47;6086558;23;20046;-76
2023/01/17 05:44:37;;;;;;;3.90;3.70;;;;;;;0.41;100.00;98203.34;6108268;23;20016;-79
2023/01/17 05:47:04;;;;;;;3.83;3.53;;;;;;;0.73;100.00;98267.03;6066962;23;20819;-78
2023/01/17 05:49:30;;;;;;;3.10;3.00;;;;;;;0.67;100.00;98277.66;6110223;23;20036;-76
2023/01/17 05:51:56;;;;;;;2.92;2.83;;;;;;;0.05;100.00;98174.16;6079408;23;20229;-75
2023/01/17 05:54:23;;;;;;;3.60;3.40;;;;;;;0.52;100.00;98262.94;6081508;23;20028;-77
2023/01/17 05:56:49;;;;;;;3.10;3.00;;;;;;;-0.53;100.00;98097.97;6087611;23;20134;-78
2023/01/17 05:59:16;;;;;;;2.95;2.85;;;;;;;0.35;100.00;98243.16;6076094;23;20033;-76
2023/01/17 06:02:01;;;;;;;3.70;3.50;;;;;;;-0.38;100.00;98142.78;6113489;23;20017;-77
2023/01/17 06:04:28;;;;;;;3.10;3.00;;;;;;;-0.71;100.00;98094.53;6085366;23;20057;-77
2023/01/17 06:06:54;;;;;;;3.20;3.10;;;;;;;0.25;100.00;98278.91;6093363;23;20014;-79
2023/01/17 06:09:21;;;;;;;3.70;3.50;;;;;;;-0.23;100.00;98198.69;6116498;23;20021;-77
2023/01/17 06:11:47;;;;;;;3.33;3.22;;;;;;;0.18;100.00;98262.91;6080098;23;20504;-75
2023/01/17 06:14:14;;;;;;;3.20;3.08;;;;;;;-0.69;100.00;98145.97;6081118;23;20024;-77
2023/01/17 06:16:40;;;;;;;4.00;3.80;;;;;;;-0.07;100.00;98265.81;6086691;23;20029;-77
2023/01/17 06:19:08;;;;;;;3.97;3.78;;;;;;;-0.29;100.00;98229.09;6056782;23;20015;-78
2023/01/17 06:21:34;;;;;;;2.97;2.88;;;;;;;-0.24;100.00;98248.59;6116426;23;20041;-78
2023/01/17 06:24:01;;;;;;;3.13;3.03;;;;;;;-0.07;100.00;98276.13;6092482;23;20006;-76
2023/01/17 06:26:29;;;;;;;3.55;3.35;;;;;;;-0.46;100.00;98204.97;6073531;23;20014;-77
2023/01/17 06:28:56;;;;;;;4.50;3.65;;;;;;;-0.13;100.00;98278.19;6089209;23;20411;-76
2023/01/17 06:31:22;;;;;;;3.22;3.13;;;;;;;-0.57;100.00;98220.09;6090661;23;20129;-77
2023/01/17 06:33:49;;;;;;;3.70;3.40;;;;;;;-2.12;100.00;97967.34;6082841;23;20034;-76
2023/01/17 06:36:15;;;;;;;3.20;3.10;;;;;;;-0.19;100.00;98278.47;6082989;23;20049;-76
2023/01/17 06:38:42;;;;;;;3.15;3.05;;;;;;;-0.32;100.00;98262.72;6111338;23;20566;-77
2023/01/17 06:41:08;;;;;;;3.30;3.20;;;;;;;-0.15;100.00;98285.97;6068343;23;20034;-76
2023/01/17 06:43:35;;;;;;;3.05;2.95;;;;;;;-1.42;100.00;98082.41;6106397;23;20236;-75
2023/01/17 06:46:01;;;;;;;3.33;3.13;;;;;;;-0.99;100.00;98158.53;6115232;23;20036;-79
2023/01/17 06:48:28;;;;;;;3.28;3.10;;;;;;;-0.67;100.00;98218.84;6091933;23;20255;-78
2023/01/17 06:50:59;;;;;;;7.43;3.88;;;;;;;-0.31;100.00;98283.28;6089807;23;20142;-78
2023/01/17 06:53:26;;;;;;;3.65;3.45;;;;;;;-0.31;100.00;98282.47;6081962;23;20381;-76
2023/01/17 06:55:58;;;;;;;3.97;3.70;;;;;;;-0.55;100.00;98277.53;6108662;23;20017;-76
2023/01/17 06:58:24;;;;;;;3.13;3.03;;;;;;;-0.37;100.00;98293.88;6077287;23;20491;-78
2023/01/17 07:00:51;;;;;;;3.30;3.10;;;;;;;-0.42;100.00;98290.69;6089987;23;20034;-77
2023/01/17 07:03:23;;;;;;;2.80;2.70;;;;;;;-0.46;100.00;98287.41;6070219;23;20026;-76
2023/01/17 07:05:50;;;;;;;3.15;3.05;;;;;;;-0.52;100.00;98285.13;6106085;23;20025;-77
2023/01/17 07:08:18;;;;;;;3.33;3.13;;;;;;;-0.68;100.00;98258.38;6084393;23;20032;-75
2023/01/17 07:10:46;;;;;;;3.15;3.05;;;;;;;-0.58;100.00;98284.56;6109851;23;20378;-75
2023/01/17 07:13:13;;;;;;;4.07;3.88;;;;;;;-0.64;100.00;98285.69;6051154;23;20024;-78
2023/01/17 07:15:39;;;;;;;3.80;3.50;;;;;;;-0.69;100.00;98287.63;6079483;23;20039;-77
2023/01/17 07:18:06;;;;;;;4.63;4.32;;;;;;;-1.86;100.00;98089.53;6080263;23;20034;-75
2023/01/17 07:20:33;;;;;;;3.10;3.00;;;;;;;-1.34;100.00;98182.41;6067433;23;20071;-76
2023/01/17 07:22:59;;;;;;;7.32;3.47;;;;;;;-0.75;100.00;98300.78;6110332;23;20089;-78
2023/01/17 07:25:26;;;;;;;3.75;3.55;;;;;;;-1.61;100.00;98166.44;6087805;23;20036;-75
2023/01/17 07:27:56;;;;;;;3.85;3.65;;;;;;;-0.88;100.00;98287.59;6042912;23;20015;-75
2023/01/17 07:30:23;;;;;;;3.10;3.00;;;;;;;-1.76;100.00;98157.66;6110824;23;20126;-76
2023/01/17 07:32:51;;;;;;;2.95;2.85;;;;;;;-1.62;100.00;98198.19;6090733;23;20495;-76
2023/01/17 07:35:19;;;;;;;4.38;4.07;;;;;;;-1.44;100.00;98222.28;6073604;23;20022;-77
2023/01/17 07:37:49;;;;;;;3.40;3.10;;;;;;;-1.05;100.00;98275.47;6080042;23;20058;-78
2023/01/17 07:40:17;;;;;;;3.78;3.58;;;;;;;-1.71;100.00;98170.28;6070166;23;22617;-77
2023/01/17 07:42:44;;;;;;;3.40;3.30;;;;;;;-1.02;100.00;98283.09;6080220;23;20378;-76
2023/01/17 07:45:12;;;;;;;2.83;2.72;;;;;;;-0.97;100.00;98282.88;6056543;23;20555;-75
2023/01/17 07:47:39;;;;;;;3.72;3.53;;;;;;;-0.90;100.00;98279.09;6082108;23;20461;-74
2023/01/17 07:50:07;;;;;;;3.13;2.92;;;;;;;-1.26;100.00;98221.50;6052689;23;20290;-75
2023/01/17 07:52:33;;;;;;;3.03;2.90;;;;;;;-1.76;100.00;98121.66;6052491;23;20296;-75
2023/01/17 07:54:59;;;;;;;3.25;3.15;;;;;;;-0.73;100.00;98286.09;6079346;23;20066;-75
2023/01/17 07:57:26;;;;;;;6.30;5.95;;;;;;;-0.70;100.00;98279.06;6038968;23;20512;-75
2023/01/17 07:59:52;;;;;;;3.25;3.15;;;;;;;-0.96;100.00;98243.34;6059177;23;20445;-76
2023/01/17 08:02:21;;;;;;;4.35;4.00;;;;;;;-1.27;100.00;98177.81;6031311;23;20037;-76
2023/01/17 08:04:48;;;;;;;3.05;2.90;;;;;;;-1.03;100.00;98220.44;6051579;23;20022;-74
2023/01/17 08:07:15;;;;;;;5.57;4.30;;;;;;;-2.14;100.00;98048.78;6074295;23;20073;-74
2023/01/17 08:09:42;;;;;;;3.58;3.28;;;;;;;-0.83;100.00;98255.59;6077867;23;20024;-76
2023/01/17 08:12:09;;;;;;;4.40;4.20;;;;;;;-0.61;100.00;98275.22;6074745;23;20624;-75
2023/01/17 08:14:35;;;;;;;3.72;3.53;;;;;;;-0.61;100.00;98281.22;6086183;23;20155;-77
2023/01/17 08:17:11;;;;;;;4.07;3.88;;;;;;;-0.56;100.00;98281.03;6063828;23;20014;-75
2023/01/17 08:19:38;;;;;;;4.05;3.40;;;;;;;-0.57;100.00;98273.34;6071197;23;20018;-76
2023/01/17 08:22:04;;;;;;;3.22;3.13;;;;;;;-0.61;100.00;98257.19;6067530;23;20026;-74
2023/01/17 08:24:31;;;;;;;4.70;4.30;;;;;;;-0.54;100.00;98286.94;6078220;23;20021;-73
2023/01/17 08:26:57;;;;;;;4.13;3.92;;;;;;;-0.62;100.00;98263.28;6046030;23;20039;-73
2023/01/17 08:29:24;;;;;;;3.28;3.17;;;;;;;-0.85;100.00;98252.25;6025997;23;20041;-73
2023/01/17 08:31:50;;;;;;;3.28;3.17;;;;;;;-1.49;100.00;98127.31;6061911;23;20025;-75
2023/01/17 08:34:17;;;;;;;3.00;2.90;;;;;;;-0.81;100.00;98235.75;6058662;23;20695;-76
2023/01/17 08:36:44;;;;;;;4.57;4.38;;;;;;;-0.39;100.00;98289.72;6105399;23;20021;-75
2023/01/17 08:39:13;;;;;;;3.65;3.45;;;;;;;-0.38;100.00;98283.63;6078579;23;20022;-73
2023/01/17 08:41:40;;;;;;;4.22;3.90;;;;;;;-0.80;100.00;98218.59;6107846;23;20491;-74
2023/01/17 08:44:06;;;;;;;3.72;3.53;;;;;;;-0.33;100.00;98294.56;6090524;23;20009;-76
2023/01/17 08:46:33;;;;;;;2.80;2.70;;;;;;;-0.45;100.00;98270.22;6072263;23;20318;-76
2023/01/17 08:49:01;;;;;;;3.20;3.10;;;;;;;-0.30;100.00;98294.41;6080095;23;20030;-75
2023/01/17 08:51:28;;;;;;;3.10;3.00;;;;;;;-0.88;100.00;98189.75;6087771;23;20480;-76
2023/01/17 08:53:55;;;;;;;2.90;2.80;;;;;;;-0.23;100.00;98286.34;6092302;23;20033;-75
2023/01/17 08:56:25;;;;;;;4.05;3.83;;;;;;;-0.16;100.00;98286.03;6110690;23;20029;-75
2023/01/17 08:58:52;;;;;;;3.42;3.22;;;;;;;-0.65;100.00;98204.16;6061117;23;20021;-74
2023/01/17 09:01:19;;;;;;;3.67;3.47;;;;;;;-0.04;100.00;98290.59;6107620;23;20037;-74
2023/01/17 09:03:52;;;;;;;3.78;3.20;;;;;;;-0.66;100.00;98189.59;6081869;23;20014;-75
2023/01/17 09:06:19;;;;;;;3.22;3.13;;;;;;;-0.13;100.00;98270.44;6058078;23;20050;-73
2023/01/17 09:08:50;;;;;;;3.22;3.05;;;;;;;-0.52;100.00;98173.50;6102076;23;20021;-76
2023/01/17 09:12:09;;;;;;;15.27;14.38;;;;;;;-1.27;100.00;98052.56;6051614;23;20343;-75
2023/01/17 09:14:40;;;;;;;;;;;;;;;0.53;100.00;98311.91;6064517;23;20029;-75
2023/01/17 09:17:06;;;;;;;3.10;3.00;;;;;;;0.56;100.00;98319.50;6106934;23;20100;-75
2023/01/17 09:19:34;;;;;;;6.18;2.92;;;;;;;-0.05;100.00;98227.09;6076820;23;20294;-75
2023/01/17 09:22:01;;;;;;;2.72;2.63;;;;;;;0.33;100.00;98273.38;6104060;23;20045;-75
2023/01/17 09:24:29;;;;;;;2.97;2.88;;;;;;;0.64;100.00;98324.28;6059945;23;20018;-75
2023/01/17 09:26:56;;;;;;;4.13;3.22;;;;;;;0.43;100.00;98271.16;6080179;23;20026;-76
2023/01/17 09:29:22;;;;;;;3.00;2.90;;;;;;;0.72;100.00;98316.16;6077774;23;20033;-76
2023/01/17 09:31:49;;;;;;;3.08;2.97;;;;;;;0.79;100.00;98325.25;6104758;23;20578;-74
2023/01/17 09:34:17;;;;;;;3.70;3.50;;;;;;;0.30;100.00;98227.94;6056036;23;20097;-74
2023/01/17 09:36:44;;;;;;;3.30;3.20;;;;;;;1.45;100.00;98386.47;6076923;23;20018;-74
2023/01/17 09:39:14;;;;;;;3.20;3.10;;;;;;;1.03;100.00;98297.34;6081620;23;20013;-74
2023/01/17 09:41:44;;;;;;;3.03;2.92;;;;;;;1.86;100.00;98393.75;6099318;23;20149;-74
2023/01/17 09:44:14;;;;;;;3.45;3.35;;;;;;;1.91;100.00;98399.53;6093959;23;20380;-73
2023/01/17 09:46:45;;;;;;;3.10;2.85;;;;;;;1.98;100.00;98398.31;6107410;23;20015;-74
2023/01/17 09:49:36;;;;;;;4.10;3.90;;;;;;;1.87;100.00;98402.38;6077597;23;20043;-75
2023/01/17 09:52:05;;;;;;;3.17;3.08;;;;;;;1.96;100.00;98399.28;6075756;23;20026;-73
2023/01/17 09:54:39;;;;;;;2.97;2.88;;;;;;;0.89;100.00;98217.19;6085069;23;20768;-76
2023/01/17 09:57:25;;;;;;;13.27;3.38;;;;;;;1.30;100.00;98307.97;6080637;23;20034;-74
2023/01/17 10:00:13;;;;;;;3.88;3.67;;;;;;;1.49;100.00;98340.63;6087921;23;20464;-74
2023/01/17 10:02:53;;;;;;;14.15;3.58;;;;;;;2.02;100.00;98413.66;6111146;23;20350;-74
2023/01/17 10:05:31;;;;;;;3.63;3.42;;;;;;;2.12;100.00;98420.00;6091522;23;20045;-75
2023/01/17 10:08:29;;;;;;;3.45;3.25;;;;;;;2.27;100.00;98424.34;6087079;23;20096;-76
2023/01/17 10:11:07;;;;;;;5.30;3.60;;;;;;;2.39;100.00;98418.47;6062455;23;20042;-75
2023/01/17 10:14:00;;;;;;;3.30;3.10;;;;;;;2.42;100.00;98429.59;6083782;23;20029;-74
2023/01/17 10:16:31;;;;;;;4.07;3.80;;;;;;;2.17;100.00;98382.59;6110600;23;20429;-74
2023/01/17 10:19:33;;;;;;;3.17;3.08;;;;;;;2.60;100.00;98431.97;6118551;23;20506;-74
2023/01/17 10:22:25;;;;;;;2.90;2.80;;;;;;;2.83;100.00;98431.59;6015196;23;20105;-75
2023/01/17 10:25:11;;;;;;;17.08;3.55;;;;;;;2.94;100.00;98434.41;6104024;23;20031;-75
2023/01/17 10:27:50;;;;;;;3.45;3.28;;;;;;;2.93;98.60;98432.75;6080808;23;20097;-76
2023/01/17 10:30:23;;;;;;;3.80;3.60;;;;;;;3.09;97.34;98418.00;6081562;23;20551;-75
2023/01/17 10:32:49;;;;;;;3.47;3.33;;;;;;;2.84;95.42;98382.28;6087089;23;20392;-76
2023/01/17 10:35:23;;;;;;;3.85;3.70;;;;;;;3.32;94.16;98419.22;6082225;23;20511;-75
2023/01/17 10:37:55;;;;;;;3.55;3.35;;;;;;;3.01;93.04;98370.97;6080521;23;20034;-74
2023/01/17 10:40:37;;;;;;;3.88;3.67;;;;;;;3.23;92.09;98383.50;6111369;23;20468;-75
2023/01/17 10:43:13;;;;;;;3.03;2.92;;;;;;;2.75;91.35;98300.78;6079701;23;20030;-75
2023/01/17 10:45:50;;;;;;;3.65;3.53;;;;;;;2.71;90.56;98309.66;6078692;23;20022;-75
2023/01/17 10:48:33;;;;;;;3.95;3.75;;;;;;;3.05;90.59;98395.78;6109662;23;20161;-76
2023/01/17 10:51:41;;;;;;;3.88;3.67;;;;;;;2.76;90.56;98381.91;6086541;23;20029;-75
2023/01/17 10:54:45;;;;;;;4.43;4.15;;;;;;;2.52;92.54;98379.78;6083507;23;20868;-74
2023/01/17 10:57:17;;;;;;;7.53;3.58;;;;;;;1.58;93.93;98265.16;6088471;23;20034;-75
2023/01/17 10:59:44;;;;;;;3.20;3.10;;;;;;;1.68;94.06;98296.50;6109244;23;20429;-75
2023/01/17 11:02:28;;;;;;;4.00;3.80;;;;;;;1.99;95.88;98361.16;6080521;23;20037;-75
2023/01/17 11:04:56;;;;;;;4.05;3.65;;;;;;;1.64;96.31;98337.19;6111250;23;20506;-74
2023/01/17 11:07:26;;;;;;;3.60;3.40;;;;;;;1.18;97.51;98257.81;6082722;23;20074;-72
2023/01/17 11:09:55;;;;;;;4.00;3.80;;;;;;;1.70;98.37;98338.63;6113100;23;20028;-73
2023/01/17 11:12:44;;;;;;;3.72;3.53;;;;;;;1.34;99.11;98272.47;6092536;23;20022;-72
2023/01/17 11:15:11;;;;;;;3.20;3.10;;;;;;;1.91;100.00;98359.91;6083234;23;20056;-74
2023/01/17 11:17:45;;;;;;;3.38;3.17;;;;;;;1.97;100.00;98362.16;6097941;23;20027;-73
2023/01/17 11:20:11;;;;;;;3.45;3.35;;;;;;;2.09;100.00;98368.44;6109351;23;20033;-75
2023/01/17 11:22:38;;;;;;;3.63;3.40;;;;;;;2.16;100.00;98364.56;6068376;23;20428;-72
2023/01/17 11:25:05;;;;;;;11.85;3.70;;;;;;;2.19;100.00;98369.59;6089136;23;20033;-75
2023/01/17 11:27:34;;;;;;;3.45;3.20;;;;;;;2.02;100.00;98342.03;6073780;23;20041;-72
2023/01/17 11:30:14;;;;;;;3.83;3.63;;;;;;;2.29;100.00;98360.38;6090163;23;20029;-74
2023/01/17 11:32:59;;;;;;;4.43;3.90;;;;;;;2.16;99.71;98343.88;6085090;23;20018;-74
2023/01/17 11:35:28;;;;;;;3.22;3.10;;;;;;;2.38;100.00;98333.97;6087481;23;20045;-75
2023/01/17 11:38:00;;;;;;;3.50;3.30;;;;;;;3.05;98.43;98375.03;6081311;23;20019;-74
2023/01/17 11:40:32;;;;;;;15.05;3.63;;;;;;;3.12;94.28;98381.53;6112847;23;20101;-74
2023/01/17 11:43:17;;;;;;;3.92;3.65;;;;;;;3.33;92.48;98376.00;6062750;23;20022;-74
2023/01/17 11:45:46;;;;;;;4.20;3.90;;;;;;;3.54;92.13;98372.09;6085874;23;20021;-75
2023/01/17 11:48:15;;;;;;;3.40;3.30;;;;;;;3.91;91.28;98369.84;6094271;23;20591;-74
2023/01/17 11:50:51;;;;;;;4.55;4.25;;;;;;;4.16;88.64;98371.72;6064160;23;20030;-76
2023/01/17 11:53:24;;;;;;;3.55;3.35;;;;;;;4.19;87.91;98357.75;6110305;23;20186;-78
2023/01/17 11:56:05;;;;;;;3.85;3.65;;;;;;;4.35;84.87;98337.66;6080838;23;20038;-75
2023/01/17 11:58:34;;;;;;;4.45;4.15;;;;;;;4.35;83.26;98322.06;6116302;23;20050;-74
2023/01/17 12:01:31;;;;;;;3.28;3.17;;;;;;;4.69;82.46;98325.06;6084275;23;20077;-73
2023/01/17 12:04:23;;;;;;;21.38;3.72;;;;;;;4.95;81.49;98317.25;6096850;23;20161;-75
2023/01/17 12:07:02;;;;;;;4.72;4.32;;;;;;;5.23;80.30;98318.81;6076216;23;20402;-74
2023/01/17 12:09:47;;;;;;;3.97;3.78;;;;;;;4.84;79.09;98286.81;6113989;23;20010;-74
2023/01/17 12:15:24;;;;;;;4.43;4.10;;;;;;;5.24;78.50;98284.09;6073605;23;20814;-74
2023/01/17 12:18:29;;;;;;;4.15;3.92;;;;;;;4.95;77.20;98253.13;6109251;23;20178;-75
2023/01/17 12:21:19;;;;;;;3.88;3.67;;;;;;;4.92;77.03;98227.34;5964850;23;20014;-75
2023/01/17 12:24:01;;;;;;;3.55;3.45;;;;;;;5.22;75.28;98246.97;6104384;23;20012;-74
2023/01/17 12:26:40;;;;;;;4.97;4.67;;;;;;;5.35;75.95;98234.78;6083617;23;20408;-75
2023/01/17 12:29:37;;;;;;;4.30;4.10;;;;;;;5.15;74.30;98204.97;6078028;23;20024;-75
2023/01/17 12:32:35;;;;;;;4.47;4.20;;;;;;;4.62;75.61;98138.53;6084359;23;20029;-75
2023/01/17 12:35:16;;;;;;;4.03;3.83;;;;;;;4.23;76.46;98117.78;6060187;23;20022;-76
2023/01/17 12:38:12;;;;;;;3.83;3.63;;;;;;;4.23;77.61;98164.50;6077891;23;20022;-74
2023/01/17 12:41:29;;;;;;;3.72;3.60;;;;;;;3.86;79.11;98140.97;6056161;23;20094;-73
2023/01/17 12:43:59;;;;;;;4.10;3.80;;;;;;;3.82;80.40;98160.28;6034322;23;20025;-75
2023/01/17 12:46:37;;;;;;;5.32;4.80;;;;;;;3.37;80.08;98133.81;6073856;23;20045;-74
2023/01/17 12:49:30;;;;;;;3.38;3.20;;;;;;;3.37;81.95;98183.06;6056399;23;20071;-76
2023/01/17 12:52:25;;;;;;;3.47;3.38;;;;;;;3.24;81.81;98192.53;6059743;23;20176;-74
2023/01/17 12:55:02;;;;;;;4.07;3.88;;;;;;;3.05;83.25;98195.41;6057530;23;20025;-74
2023/01/17 12:57:35;;;;;;;3.67;3.47;;;;;;;3.09;83.30;98195.13;6054710;23;20034;-75
2023/01/17 13:00:18;;;;;;;3.35;3.25;;;;;;;2.79;84.08;98167.59;6049897;23;20025;-74
2023/01/17 13:03:15;;;;;;;4.35;3.80;;;;;;;3.00;84.82;98200.88;6076449;23;20095;-76
2023/01/17 13:05:57;;;;;;;3.80;3.60;;;;;;;3.14;84.68;98218.16;6076606;23;20322;-75
2023/01/17 13:08:41;;;;;;;3.72;3.53;;;;;;;3.02;84.91;98198.19;6075947;23;20507;-75
2023/01/17 13:11:27;;;;;;;3.30;3.20;;;;;;;2.93;84.22;98215.16;6028196;23;20097;-75
2023/01/17 13:13:58;;;;;;;3.28;3.17;;;;;;;2.64;85.46;98184.06;6076757;23;20014;-73
2023/01/17 13:16:52;;;;;;;3.13;3.03;;;;;;;2.58;85.57;98179.25;6046225;23;20540;-75
2023/01/17 13:19:37;;;;;;;3.33;3.20;;;;;;;2.70;85.58;98206.16;6057709;23;20018;-76
2023/01/17 13:22:07;;;;;;;3.47;3.38;;;;;;;1.82;86.20;98081.94;6079485;23;20029;-74